Allen, Michigan
Current Conditions -  °F | °C
As of 1:34 PM on Monday 20 Oct 2014 (Local Time) from KJYM Reporting Station
Overcast Overcast  
Wind Chill: 52°   Ceiling: 700
Heat Index: 52°   Visibility: 7mi
Dew Point: 52°   Wind: 8mph
Humidity: 99%   Direction: 310°NW
Pressure: 29.81"   Gusts: NA
Location:  41.96°N, 84.77°W
Report Text: KJYM 201734Z AUTO 31007KT 7SM OVC007 11/11 A2981 RMK AO2 T01120110
Loading
Personal Weather Stations






























Interactive Weather Map
Tropical Storm Tracking
New forecast layout! Learn more

10-Day Weather Forecast

Advertisements
Track Severe Weather on mobile